sensor_id;sensor_type;location;lat;lon;timestamp;pressure;altitude;pressure_sealevel;temperature;humidity
4012;BME280;2020;48.682;9.024;2023-05-08T00:01:01;96694.47;;;13.95;100.00
4012;BME280;2020;48.682;9.024;2023-05-08T00:03:27;96689.44;;;13.93;100.00
4012;BME280;2020;48.682;9.024;2023-05-08T00:05:52;96689.09;;;13.96;100.00
4012;BME280;2020;48.682;9.024;2023-05-08T00:08:19;96689.09;;;13.96;100.00
4012;BME280;2020;48.682;9.024;2023-05-08T00:10:45;96684.84;;;13.95;100.00
4012;BME280;2020;48.682;9.024;2023-05-08T00:13:10;96688.75;;;13.91;100.00
4012;BME280;2020;48.682;9.024;2023-05-08T00:15:35;96687.97;;;13.91;100.00
4012;BME280;2020;48.682;9.024;2023-05-08T00:18:00;96679.91;;;14.00;100.00
4012;BME280;2020;48.682;9.024;2023-05-08T00:20:26;96692.00;;;14.01;100.00
4012;BME280;2020;48.682;9.024;2023-05-08T00:22:51;96683.50;;;13.99;100.00
4012;BME280;2020;48.682;9.024;2023-05-08T00:25:16;96693.34;;;13.97;100.00
4012;BME280;2020;48.682;9.024;2023-05-08T00:27:41;96692.69;;;13.95;100.00
4012;BME280;2020;48.682;9.024;2023-05-08T00:30:07;96692.69;;;13.95;100.00
4012;BME280;2020;48.682;9.024;2023-05-08T00:32:32;96694.66;;;13.93;100.00
4012;BME280;2020;48.682;9.024;2023-05-08T00:34:58;96694.97;;;13.90;100.00
4012;BME280;2020;48.682;9.024;2023-05-08T00:37:23;96698.56;;;13.89;100.00
4012;BME280;2020;48.682;9.024;2023-05-08T00:39:48;96688.78;;;13.83;100.00
4012;BME280;2020;48.682;9.024;2023-05-08T00:42:13;96691.78;;;13.71;100.00
4012;BME280;2020;48.682;9.024;2023-05-08T00:44:39;96696.34;;;13.78;100.00
4012;BME280;2020;48.682;9.024;2023-05-08T00:47:06;96693.38;;;13.81;100.00
4012;BME280;2020;48.682;9.024;2023-05-08T00:49:31;96697.63;;;13.82;100.00
4012;BME280;2020;48.682;9.024;2023-05-08T00:51:58;96699.94;;;13.77;100.00
4012;BME280;2020;48.682;9.024;2023-05-08T00:54:25;96694.72;;;13.77;100.00
4012;BME280;2020;48.682;9.024;2023-05-08T00:56:50;96700.59;;;13.79;100.00
4012;BME280;2020;48.682;9.024;2023-05-08T00:59:19;96700.44;;;13.80;100.00
4012;BME280;2020;48.682;9.024;2023-05-08T01:01:45;96707.75;;;13.85;100.00
4012;BME280;2020;48.682;9.024;2023-05-08T01:04:12;96706.13;;;13.84;100.00
4012;BME280;2020;48.682;9.024;2023-05-08T01:06:38;96705.13;;;13.85;100.00
4012;BME280;2020;48.682;9.024;2023-05-08T01:09:04;96705.13;;;13.85;100.00
4012;BME280;2020;48.682;9.024;2023-05-08T01:11:45;96716.59;;;13.84;100.00
4012;BME280;2020;48.682;9.024;2023-05-08T01:14:19;96716.59;;;13.84;100.00
4012;BME280;2020;48.682;9.024;2023-05-08T01:19:41;96702.88;;;13.82;100.00
4012;BME280;2020;48.682;9.024;2023-05-08T01:25:15;96706.81;;;13.78;100.00
4012;BME280;2020;48.682;9.024;2023-05-08T01:28:19;96705.16;;;13.77;100.00
4012;BME280;2020;48.682;9.024;2023-05-08T01:36:16;96707.78;;;13.77;100.00
4012;BME280;2020;48.682;9.024;2023-05-08T01:41:28;96706.81;;;13.78;100.00
4012;BME280;2020;48.682;9.024;2023-05-08T01:44:11;96710.41;;;13.77;100.00
4012;BME280;2020;48.682;9.024;2023-05-08T01:46:37;96705.81;;;13.79;100.00
4012;BME280;2020;48.682;9.024;2023-05-08T01:49:08;96713.03;;;13.77;100.00
4012;BME280;2020;48.682;9.024;2023-05-08T01:51:48;96714.00;;;13.75;100.00
4012;BME280;2020;48.682;9.024;2023-05-08T01:54:22;96718.44;;;13.75;100.00
4012;BME280;2020;48.682;9.024;2023-05-08T01:56:52;96712.38;;;13.74;100.00
4012;BME280;2020;48.682;9.024;2023-05-08T01:59:21;96714.19;;;13.74;100.00
4012;BME280;2020;48.682;9.024;2023-05-08T02:01:48;96715.47;;;13.78;100.00
4012;BME280;2020;48.682;9.024;2023-05-08T02:04:16;96720.22;;;13.74;100.00
4012;BME280;2020;48.682;9.024;2023-05-08T02:06:42;96719.56;;;13.72;100.00
4012;BME280;2020;48.682;9.024;2023-05-08T02:09:08;96714.69;;;13.69;100.00
4012;BME280;2020;48.682;9.024;2023-05-08T02:11:36;96719.91;;;13.69;100.00
4012;BME280;2020;48.682;9.024;2023-05-08T02:14:02;96721.53;;;13.70;100.00
4012;BME280;2020;48.682;9.024;2023-05-08T02:16:29;96723.19;;;13.71;100.00
4012;BME280;2020;48.682;9.024;2023-05-08T02:18:57;96721.53;;;13.70;100.00
4012;BME280;2020;48.682;9.024;2023-05-08T02:21:25;96717.28;;;13.69;100.00
4012;BME280;2020;48.682;9.024;2023-05-08T02:23:53;96720.25;;;13.66;100.00
4012;BME280;2020;48.682;9.024;2023-05-08T02:26:21;96711.41;;;13.67;100.00
4012;BME280;2020;48.682;9.024;2023-05-08T02:28:48;96717.81;;;13.65;100.00
4012;BME280;2020;48.682;9.024;2023-05-08T02:31:14;96717.97;;;13.63;100.00
4012;BME280;2020;48.682;9.024;2023-05-08T02:33:41;96720.94;;;13.60;100.00
4012;BME280;2020;48.682;9.024;2023-05-08T02:36:07;96727.78;;;13.61;100.00
4012;BME280;2020;48.682;9.024;2023-05-08T02:38:36;96728.09;;;13.66;100.00
4012;BME280;2020;48.682;9.024;2023-05-08T02:41:03;96732.34;;;13.67;100.00
4012;BME280;2020;48.682;9.024;2023-05-08T02:43:30;96727.44;;;13.64;100.00
4012;BME280;2020;48.682;9.024;2023-05-08T02:46:17;96730.25;;;13.63;100.00
4012;BME280;2020;48.682;9.024;2023-05-08T02:49:00;96727.66;;;13.54;100.00
4012;BME280;2020;48.682;9.024;2023-05-08T02:51:48;96723.91;;;13.49;100.00
4012;BME280;2020;48.682;9.024;2023-05-08T02:54:50;96720.31;;;13.50;100.00
4012;BME280;2020;48.682;9.024;2023-05-08T02:57:38;96713.75;;;13.54;100.00
4012;BME280;2020;48.682;9.024;2023-05-08T03:00:11;96720.31;;;13.50;100.00
4012;BME280;2020;48.682;9.024;2023-05-08T03:02:40;96718.66;;;13.49;100.00
4012;BME280;2020;48.682;9.024;2023-05-08T03:05:18;96718.66;;;13.49;100.00
4012;BME280;2020;48.682;9.024;2023-05-08T03:07:47;96716.69;;;13.51;100.00
4012;BME280;2020;48.682;9.024;2023-05-08T03:10:14;96719.66;;;13.48;100.00
4012;BME280;2020;48.682;9.024;2023-05-08T03:12:44;96716.25;;;13.47;100.00
4012;BME280;2020;48.682;9.024;2023-05-08T03:15:51;96719.31;;;13.51;100.00
4012;BME280;2020;48.682;9.024;2023-05-08T03:18:21;96713.78;;;13.45;100.00
4012;BME280;2020;48.682;9.024;2023-05-08T03:20:50;96708.53;;;13.45;100.00
4012;BME280;2020;48.682;9.024;2023-05-08T03:23:19;96714.59;;;13.46;100.00
4012;BME280;2020;48.682;9.024;2023-05-08T03:25:44;96720.63;;;13.47;100.00
4012;BME280;2020;48.682;9.024;2023-05-08T03:28:10;96716.69;;;13.51;100.00
4012;BME280;2020;48.682;9.024;2023-05-08T03:30:39;96720.16;;;13.43;100.00
4012;BME280;2020;48.682;9.024;2023-05-08T03:33:05;96725.22;;;13.36;100.00
4012;BME280;2020;48.682;9.024;2023-05-08T03:35:38;96728.47;;;13.30;100.00
4012;BME280;2020;48.682;9.024;2023-05-08T03:38:04;96720.97;;;13.27;100.00
4012;BME280;2020;48.682;9.024;2023-05-08T03:40:32;96715.75;;;13.27;100.00
4012;BME280;2020;48.682;9.024;2023-05-08T03:43:01;96719.84;;;13.29;100.00
4012;BME280;2020;48.682;9.024;2023-05-08T03:45:29;96716.72;;;13.26;100.00
4012;BME280;2020;48.682;9.024;2023-05-08T03:47:54;96723.09;;;13.31;100.00
4012;BME280;2020;48.682;9.024;2023-05-08T03:50:20;96723.91;;;13.32;100.00
4012;BME280;2020;48.682;9.024;2023-05-08T03:52:46;96722.28;;;13.31;100.00
4012;BME280;2020;48.682;9.024;2023-05-08T03:55:11;96718.69;;;13.32;100.00
4012;BME280;2020;48.682;9.024;2023-05-08T03:57:55;96721.94;;;13.34;100.00
4012;BME280;2020;48.682;9.024;2023-05-08T04:00:31;96724.56;;;13.34;100.00
4012;BME280;2020;48.682;9.024;2023-05-08T04:03:17;96724.41;;;13.36;100.00
4012;BME280;2020;48.682;9.024;2023-05-08T04:05:50;96729.31;;;13.39;100.00
4012;BME280;2020;48.682;9.024;2023-05-08T04:08:24;96728.16;;;13.33;100.00
4012;BME280;2020;48.682;9.024;2023-05-08T04:11:07;96734.69;;;13.29;100.00
4012;BME280;2020;48.682;9.024;2023-05-08T04:13:40;96735.34;;;13.23;100.00
4012;BME280;2020;48.682;9.024;2023-05-08T04:16:19;96740.91;;;13.20;100.00
4012;BME280;2020;48.682;9.024;2023-05-08T04:18:46;96744.19;;;13.22;100.00
4012;BME280;2020;48.682;9.024;2023-05-08T04:21:18;96750.22;;;13.22;100.00
4012;BME280;2020;48.682;9.024;2023-05-08T04:23:45;96750.22;;;13.22;100.00
4012;BME280;2020;48.682;9.024;2023-05-08T04:26:13;96747.78;;;13.21;100.00
4012;BME280;2020;48.682;9.024;2023-05-08T04:28:39;96749.06;;;13.25;100.00
4012;BME280;2020;48.682;9.024;2023-05-08T04:31:05;96753.00;;;13.29;100.00
4012;BME280;2020;48.682;9.024;2023-05-08T04:33:33;96746.44;;;13.33;100.00
4012;BME280;2020;48.682;9.024;2023-05-08T04:36:00;96754.78;;;13.37;100.00
4012;BME280;2020;48.682;9.024;2023-05-08T04:38:26;96751.00;;;13.39;100.00
4012;BME280;2020;48.682;9.024;2023-05-08T04:40:51;96754.28;;;13.41;100.00
4012;BME280;2020;48.682;9.024;2023-05-08T04:43:16;96755.13;;;13.42;100.00
4012;BME280;2020;48.682;9.024;2023-05-08T04:45:41;96756.25;;;13.48;100.00
4012;BME280;2020;48.682;9.024;2023-05-08T04:48:07;96755.28;;;13.49;100.00
4012;BME280;2020;48.682;9.024;2023-05-08T04:50:32;96759.72;;;13.48;100.00
4012;BME280;2020;48.682;9.024;2023-05-08T04:52:57;96760.50;;;13.49;100.00
4012;BME280;2020;48.682;9.024;2023-05-08T04:55:22;96767.38;;;13.50;100.00
4012;BME280;2020;48.682;9.024;2023-05-08T04:57:48;96759.72;;;13.48;100.00
4012;BME280;2020;48.682;9.024;2023-05-08T05:00:13;96763.78;;;13.51;100.00
4012;BME280;2020;48.682;9.024;2023-05-08T05:02:39;96765.41;;;13.52;100.00
4012;BME280;2020;48.682;9.024;2023-05-08T05:05:05;96768.00;;;13.52;100.00
4012;BME280;2020;48.682;9.024;2023-05-08T05:07:30;96766.22;;;13.52;100.00
4012;BME280;2020;48.682;9.024;2023-05-08T05:09:55;96765.25;;;13.45;100.00
4012;BME280;2020;48.682;9.024;2023-05-08T05:12:21;96774.91;;;13.44;100.00
4012;BME280;2020;48.682;9.024;2023-05-08T05:14:46;96767.22;;;13.43;100.00
4012;BME280;2020;48.682;9.024;2023-05-08T05:17:11;96778.31;;;13.37;100.00
4012;BME280;2020;48.682;9.024;2023-05-08T05:19:36;96780.09;;;13.36;100.00
4012;BME280;2020;48.682;9.024;2023-05-08T05:22:02;96787.63;;;13.39;100.00
4012;BME280;2020;48.682;9.024;2023-05-08T05:24:27;96785.00;;;13.39;100.00
4012;BME280;2020;48.682;9.024;2023-05-08T05:26:52;96785.97;;;13.38;100.00
4012;BME280;2020;48.682;9.024;2023-05-08T05:29:18;96787.47;;;13.33;100.00
4012;BME280;2020;48.682;9.024;2023-05-08T05:31:43;96785.00;;;13.31;100.00
4012;BME280;2020;48.682;9.024;2023-05-08T05:34:08;96786.31;;;13.35;100.00
4012;BME280;2020;48.682;9.024;2023-05-08T05:36:33;96780.09;;;13.36;100.00
4012;BME280;2020;48.682;9.024;2023-05-08T05:38:59;96784.03;;;13.40;100.00
4012;BME280;2020;48.682;9.024;2023-05-08T05:41:24;96788.44;;;13.40;100.00
4012;BME280;2020;48.682;9.024;2023-05-08T05:43:49;96791.75;;;13.42;100.00
4012;BME280;2020;48.682;9.024;2023-05-08T05:46:15;96788.63;;;13.47;100.00
4012;BME280;2020;48.682;9.024;2023-05-08T05:48:40;96793.84;;;13.47;100.00
4012;BME280;2020;48.682;9.024;2023-05-08T05:51:05;96795.81;;;13.44;100.00
4012;BME280;2020;48.682;9.024;2023-05-08T05:53:31;96790.22;;;13.39;100.00
4012;BME280;2020;48.682;9.024;2023-05-08T05:55:56;96787.31;;;13.42;100.00
4012;BME280;2020;48.682;9.024;2023-05-08T05:58:21;96790.88;;;13.41;100.00
4012;BME280;2020;48.682;9.024;2023-05-08T06:00:47;96788.25;;;13.41;100.00
4012;BME280;2020;48.682;9.024;2023-05-08T06:03:12;96790.59;;;13.44;100.00
4012;BME280;2020;48.682;9.024;2023-05-08T06:05:38;96795.00;;;13.44;100.00
4012;BME280;2020;48.682;9.024;2023-05-08T06:08:04;96789.94;;;13.42;100.00
4012;BME280;2020;48.682;9.024;2023-05-08T06:10:30;96790.88;;;13.41;100.00
4012;BME280;2020;48.682;9.024;2023-05-08T06:12:55;96797.13;;;13.49;100.00
4012;BME280;2020;48.682;9.024;2023-05-08T06:15:21;96792.53;;;13.51;100.00
4012;BME280;2020;48.682;9.024;2023-05-08T06:17:46;96792.53;;;13.51;100.00
4012;BME280;2020;48.682;9.024;2023-05-08T06:20:11;96804.47;;;13.53;100.00
4012;BME280;2020;48.682;9.024;2023-05-08T06:22:37;96797.75;;;13.59;100.00
4012;BME280;2020;48.682;9.024;2023-05-08T06:25:04;96797.41;;;13.62;100.00
4012;BME280;2020;48.682;9.024;2023-05-08T06:27:31;96795.44;;;13.64;100.00
4012;BME280;2020;48.682;9.024;2023-05-08T06:29:56;96803.94;;;13.66;100.00
4012;BME280;2020;48.682;9.024;2023-05-08T06:32:22;96807.22;;;13.68;100.00
4012;BME280;2020;48.682;9.024;2023-05-08T06:34:47;96809.19;;;13.66;100.00
4012;BME280;2020;48.682;9.024;2023-05-08T06:37:12;96809.50;;;13.63;100.00
4012;BME280;2020;48.682;9.024;2023-05-08T06:39:38;96809.53;;;13.55;100.00
4012;BME280;2020;48.682;9.024;2023-05-08T06:42:03;96811.00;;;13.57;100.00
4012;BME280;2020;48.682;9.024;2023-05-08T06:44:32;96814.75;;;13.63;100.00
4012;BME280;2020;48.682;9.024;2023-05-08T06:46:57;96807.88;;;13.62;100.00
4012;BME280;2020;48.682;9.024;2023-05-08T06:49:22;96812.09;;;13.71;100.00
4012;BME280;2020;48.682;9.024;2023-05-08T06:51:48;96810.34;;;13.64;100.00
4012;BME280;2020;48.682;9.024;2023-05-08T06:54:13;96813.09;;;13.62;100.00
4012;BME280;2020;48.682;9.024;2023-05-08T06:56:38;96807.06;;;13.62;100.00
4012;BME280;2020;48.682;9.024;2023-05-08T06:59:04;96815.72;;;13.62;100.00
4012;BME280;2020;48.682;9.024;2023-05-08T07:01:29;96813.75;;;13.64;100.00
4012;BME280;2020;48.682;9.024;2023-05-08T07:03:54;96809.34;;;13.65;100.00
4012;BME280;2020;48.682;9.024;2023-05-08T07:06:20;96815.56;;;13.64;100.00
4012;BME280;2020;48.682;9.024;2023-05-08T07:08:45;96810.50;;;13.62;100.00
4012;BME280;2020;48.682;9.024;2023-05-08T07:11:10;96811.13;;;13.64;100.00
4012;BME280;2020;48.682;9.024;2023-05-08T07:13:36;96818.00;;;13.65;100.00
4012;BME280;2020;48.682;9.024;2023-05-08T07:16:01;96808.50;;;13.72;100.00
4012;BME280;2020;48.682;9.024;2023-05-08T07:18:27;96819.59;;;13.83;100.00
4012;BME280;2020;48.682;9.024;2023-05-08T07:20:52;96818.94;;;13.89;100.00
4012;BME280;2020;48.682;9.024;2023-05-08T07:23:18;96814.69;;;13.96;100.00
4012;BME280;2020;48.682;9.024;2023-05-08T07:25:43;96813.03;;;14.03;100.00
4012;BME280;2020;48.682;9.024;2023-05-08T07:28:08;96812.66;;;14.15;100.00
4012;BME280;2020;48.682;9.024;2023-05-08T07:30:34;96814.06;;;14.26;100.00
4012;BME280;2020;48.682;9.024;2023-05-08T07:33:00;96816.66;;;14.34;100.00
4012;BME280;2020;48.682;9.024;2023-05-08T07:35:25;96821.75;;;14.36;100.00
4012;BME280;2020;48.682;9.024;2023-05-08T07:37:51;96817.75;;;14.48;100.00
4012;BME280;2020;48.682;9.024;2023-05-08T07:40:16;96816.56;;;14.51;100.00
4012;BME280;2020;48.682;9.024;2023-05-08T07:42:42;96823.09;;;14.55;100.00
4012;BME280;2020;48.682;9.024;2023-05-08T07:45:09;96827.78;;;14.68;100.00
4012;BME280;2020;48.682;9.024;2023-05-08T07:47:35;96823.72;;;14.73;100.00
4012;BME280;2020;48.682;9.024;2023-05-08T07:50:01;96825.63;;;14.80;100.00
4012;BME280;2020;48.682;9.024;2023-05-08T07:52:26;96822.38;;;14.77;100.00
4012;BME280;2020;48.682;9.024;2023-05-08T07:54:51;96820.50;;;14.86;100.00
4012;BME280;2020;48.682;9.024;2023-05-08T07:57:16;96823.13;;;14.86;100.00
4012;BME280;2020;48.682;9.024;2023-05-08T07:59:42;96824.69;;;14.96;100.00
4012;BME280;2020;48.682;9.024;2023-05-08T08:02:07;96824.00;;;15.02;100.00
4012;BME280;2020;48.682;9.024;2023-05-08T08:04:32;96827.25;;;15.04;100.00
4012;BME280;2020;48.682;9.024;2023-05-08T08:06:58;96829.59;;;14.99;100.00
4012;BME280;2020;48.682;9.024;2023-05-08T08:09:23;96825.88;;;14.93;100.00
4012;BME280;2020;48.682;9.024;2023-05-08T08:11:48;96830.28;;;14.93;100.00
4012;BME280;2020;48.682;9.024;2023-05-08T08:14:14;96832.22;;;14.99;100.00
4012;BME280;2020;48.682;9.024;2023-05-08T08:16:39;96823.72;;;14.97;100.00
4012;BME280;2020;48.682;9.024;2023-05-08T08:19:06;96826.69;;;14.94;100.00
4012;BME280;2020;48.682;9.024;2023-05-08T08:21:31;96830.28;;;14.93;100.00
4012;BME280;2020;48.682;9.024;2023-05-08T08:23:57;96830.03;;;14.79;100.00
4012;BME280;2020;48.682;9.024;2023-05-08T08:26:23;96830.88;;;14.80;100.00
4012;BME280;2020;48.682;9.024;2023-05-08T08:28:49;96831.56;;;14.73;100.00
4012;BME280;2020;48.682;9.024;2023-05-08T08:31:15;96837.28;;;14.69;100.00
4012;BME280;2020;48.682;9.024;2023-05-08T08:33:40;96840.94;;;14.59;100.00
4012;BME280;2020;48.682;9.024;2023-05-08T08:36:12;96830.81;;;14.56;100.00
4012;BME280;2020;48.682;9.024;2023-05-08T08:38:37;96837.72;;;14.49;100.00
4012;BME280;2020;48.682;9.024;2023-05-08T08:41:03;96833.91;;;14.52;100.00
4012;BME280;2020;48.682;9.024;2023-05-08T08:43:28;96840.00;;;14.52;100.00
4012;BME280;2020;48.682;9.024;2023-05-08T08:45:54;96832.97;;;14.44;100.00
4012;BME280;2020;48.682;9.024;2023-05-08T08:48:20;96832.31;;;14.42;100.00
4012;BME280;2020;48.682;9.024;2023-05-08T08:50:51;96833.91;;;14.20;100.00
4012;BME280;2020;48.682;9.024;2023-05-08T08:53:24;96839.63;;;14.15;100.00
4012;BME280;2020;48.682;9.024;2023-05-08T08:55:51;96834.13;;;14.02;100.00
4012;BME280;2020;48.682;9.024;2023-05-08T08:58:30;96839.84;;;14.06;100.00
4012;BME280;2020;48.682;9.024;2023-05-08T09:00:59;96842.09;;;14.17;100.00
4012;BME280;2020;48.682;9.024;2023-05-08T09:03:24;96850.31;;;14.06;100.00
4012;BME280;2020;48.682;9.024;2023-05-08T09:05:51;96840.47;;;14.16;100.00
4012;BME280;2020;48.682;9.024;2023-05-08T09:08:17;96845.69;;;14.16;100.00
4012;BME280;2020;48.682;9.024;2023-05-08T09:10:42;96848.69;;;14.04;100.00
4012;BME280;2020;48.682;9.024;2023-05-08T09:13:08;96848.69;;;14.04;100.00
4012;BME280;2020;48.682;9.024;2023-05-08T09:15:33;96848.97;;;14.18;100.00
4012;BME280;2020;48.682;9.024;2023-05-08T09:18:00;96845.66;;;14.24;100.00
4012;BME280;2020;48.682;9.024;2023-05-08T09:20:27;96844.53;;;14.18;100.00
4012;BME280;2020;48.682;9.024;2023-05-08T09:22:53;96850.59;;;14.19;100.00
4012;BME280;2020;48.682;9.024;2023-05-08T09:25:18;96848.34;;;14.08;100.00
4012;BME280;2020;48.682;9.024;2023-05-08T09:27:43;96852.94;;;13.97;100.00
4012;BME280;2020;48.682;9.024;2023-05-08T09:30:11;96860.78;;;13.89;100.00
4012;BME280;2020;48.682;9.024;2023-05-08T09:32:38;96846.94;;;13.80;100.00
4012;BME280;2020;48.682;9.024;2023-05-08T09:35:05;96850.66;;;13.86;100.00
4012;BME280;2020;48.682;9.024;2023-05-08T09:37:30;96858.84;;;13.83;100.00
4012;BME280;2020;48.682;9.024;2023-05-08T09:40:22;96854.28;;;13.68;100.00
4012;BME280;2020;48.682;9.024;2023-05-08T09:42:48;96859.53;;;13.68;100.00
4012;BME280;2020;48.682;9.024;2023-05-08T09:45:28;96864.25;;;13.81;100.00
4012;BME280;2020;48.682;9.024;2023-05-08T09:47:55;96862.13;;;13.77;100.00
4012;BME280;2020;48.682;9.024;2023-05-08T09:50:20;96868.00;;;13.79;100.00
4012;BME280;2020;48.682;9.024;2023-05-08T09:52:47;96850.66;;;13.86;100.00
4012;BME280;2020;48.682;9.024;2023-05-08T09:55:13;96863.25;;;13.91;100.00
4012;BME280;2020;48.682;9.024;2023-05-08T09:57:51;96869.78;;;13.95;100.00
4012;BME280;2020;48.682;9.024;2023-05-08T10:00:16;96861.44;;;13.99;100.00
4012;BME280;2020;48.682;9.024;2023-05-08T10:03:00;96864.06;;;13.91;100.00
4012;BME280;2020;48.682;9.024;2023-05-08T10:05:27;96870.63;;;13.95;100.00
4012;BME280;2020;48.682;9.024;2023-05-08T10:07:54;96864.88;;;14.00;100.00
4012;BME280;2020;48.682;9.024;2023-05-08T10:10:23;96870.09;;;14.00;100.00
4012;BME280;2020;48.682;9.024;2023-05-08T10:12:54;96873.22;;;14.03;100.00
4012;BME280;2020;48.682;9.024;2023-05-08T10:15:22;96864.38;;;14.04;100.00
4012;BME280;2020;48.682;9.024;2023-05-08T10:18:04;96869.28;;;14.08;100.00
4012;BME280;2020;48.682;9.024;2023-05-08T10:20:30;96876.16;;;14.09;100.00
4012;BME280;2020;48.682;9.024;2023-05-08T10:22:57;96879.47;;;13.94;100.00
4012;BME280;2020;48.682;9.024;2023-05-08T10:25:23;96875.53;;;13.98;100.00
4012;BME280;2020;48.682;9.024;2023-05-08T10:27:53;96875.50;;;14.07;100.00
4012;BME280;2020;48.682;9.024;2023-05-08T10:30:23;96878.78;;;14.09;100.00
4012;BME280;2020;48.682;9.024;2023-05-08T10:32:50;96884.66;;;14.11;100.00
4012;BME280;2020;48.682;9.024;2023-05-08T10:35:19;96881.06;;;14.12;100.00
4012;BME280;2020;48.682;9.024;2023-05-08T10:37:46;96863.72;;;14.11;100.00
4012;BME280;2020;48.682;9.024;2023-05-08T10:40:12;96866.94;;;14.21;100.00
4012;BME280;2020;48.682;9.024;2023-05-08T10:42:39;96858.09;;;14.30;100.00
4012;BME280;2020;48.682;9.024;2023-05-08T10:45:06;96859.03;;;14.38;100.00
4012;BME280;2020;48.682;9.024;2023-05-08T10:47:46;96856.38;;;14.46;100.00
4012;BME280;2020;48.682;9.024;2023-05-08T10:53:02;96856.66;;;14.59;100.00
4012;BME280;2020;48.682;9.024;2023-05-08T10:55:31;96860.75;;;14.62;100.00
4012;BME280;2020;48.682;9.024;2023-05-08T10:58:04;96860.06;;;14.68;100.00
4012;BME280;2020;48.682;9.024;2023-05-08T11:00:32;96856.31;;;14.62;100.00
4012;BME280;2020;48.682;9.024;2023-05-08T11:03:07;96856.66;;;14.59;100.00
4012;BME280;2020;48.682;9.024;2023-05-08T11:05:44;96855.16;;;14.65;100.00
4012;BME280;2020;48.682;9.024;2023-05-08T11:08:14;96850.13;;;14.55;100.00
4012;BME280;2020;48.682;9.024;2023-05-08T11:10:42;96852.34;;;14.67;100.00
4012;BME280;2020;48.682;9.024;2023-05-08T11:13:10;96860.41;;;14.65;100.00
4012;BME280;2020;48.682;9.024;2023-05-08T11:15:38;96857.06;;;14.80;100.00
4012;BME280;2020;48.682;9.024;2023-05-08T11:18:05;96860.84;;;14.69;100.00
4012;BME280;2020;48.682;9.024;2023-05-08T11:20:39;96856.94;;;14.73;100.00
4012;BME280;2020;48.682;9.024;2023-05-08T11:23:29;96855.63;;;14.69;100.00
4012;BME280;2020;48.682;9.024;2023-05-08T11:26:07;96844.88;;;14.55;100.00
4012;BME280;2020;48.682;9.024;2023-05-08T11:28:38;96850.78;;;14.57;100.00
4012;BME280;2020;48.682;9.024;2023-05-08T11:31:07;96842.41;;;14.70;100.00
4012;BME280;2020;48.682;9.024;2023-05-08T11:33:36;96839.84;;;14.85;100.00
4012;BME280;2020;48.682;9.024;2023-05-08T11:36:20;96843.69;;;14.98;100.00
4012;BME280;2020;48.682;9.024;2023-05-08T11:39:07;96839.50;;;14.88;100.00
4012;BME280;2020;48.682;9.024;2023-05-08T11:41:33;96842.69;;;14.99;100.00
4012;BME280;2020;48.682;9.024;2023-05-08T11:46:35;96838.09;;;15.01;100.00
4012;BME280;2020;48.682;9.024;2023-05-08T11:49:02;96839.66;;;15.10;100.00
4012;BME280;2020;48.682;9.024;2023-05-08T11:51:31;96838.75;;;15.03;100.00
4012;BME280;2020;48.682;9.024;2023-05-08T11:53:58;96839.97;;;15.15;100.00
4012;BME280;2020;48.682;9.024;2023-05-08T11:56:23;96837.97;;;15.17;100.00
4012;BME280;2020;48.682;9.024;2023-05-08T11:59:00;96838.69;;;15.34;100.00
4012;BME280;2020;48.682;9.024;2023-05-08T12:01:25;96838.25;;;15.46;100.00
4012;BME280;2020;48.682;9.024;2023-05-08T12:04:02;96840.06;;;15.45;100.00
4012;BME280;2020;48.682;9.024;2023-05-08T12:06:28;96836.09;;;15.49;100.00
4012;BME280;2020;48.682;9.024;2023-05-08T12:08:53;96848.91;;;15.83;100.00
4012;BME280;2020;48.682;9.024;2023-05-08T12:11:22;96835.84;;;16.13;100.00
4012;BME280;2020;48.682;9.024;2023-05-08T12:13:50;96838.00;;;16.24;97.47
4012;BME280;2020;48.682;9.024;2023-05-08T12:16:15;96838.53;;;16.34;100.00
4012;BME280;2020;48.682;9.024;2023-05-08T12:18:41;96834.53;;;16.38;100.00
4012;BME280;2020;48.682;9.024;2023-05-08T12:21:09;96833.75;;;16.38;99.23
4012;BME280;2020;48.682;9.024;2023-05-08T12:23:35;96830.75;;;16.26;99.38
4012;BME280;2020;48.682;9.024;2023-05-08T12:26:01;96835.38;;;16.39;100.00
4012;BME280;2020;48.682;9.024;2023-05-08T12:28:26;96841.16;;;16.49;100.00
4012;BME280;2020;48.682;9.024;2023-05-08T12:30:52;96834.00;;;16.58;100.00
4012;BME280;2020;48.682;9.024;2023-05-08T12:33:19;96834.81;;;16.44;92.74
4012;BME280;2020;48.682;9.024;2023-05-08T12:35:45;96832.69;;;16.54;94.04
4012;BME280;2020;48.682;9.024;2023-05-08T12:38:10;96831.50;;;16.72;97.00
4012;BME280;2020;48.682;9.024;2023-05-08T12:40:44;96830.06;;;16.91;95.93
4012;BME280;2020;48.682;9.024;2023-05-08T12:43:10;96825.75;;;16.83;90.57
4012;BME280;2020;48.682;9.024;2023-05-08T12:45:37;96834.94;;;17.09;93.69
4012;BME280;2020;48.682;9.024;2023-05-08T12:48:11;96833.16;;;16.94;93.34
4012;BME280;2020;48.682;9.024;2023-05-08T12:50:41;96842.13;;;16.63;89.86
4012;BME280;2020;48.682;9.024;2023-05-08T12:53:11;96833.66;;;16.83;95.19
4012;BME280;2020;48.682;9.024;2023-05-08T12:55:38;96828.94;;;16.78;91.95
4012;BME280;2020;48.682;9.024;2023-05-08T12:58:09;96833.53;;;16.91;92.37
4012;BME280;2020;48.682;9.024;2023-05-08T13:00:47;96830.84;;;17.06;89.70
4012;BME280;2020;48.682;9.024;2023-05-08T13:03:21;96833.06;;;17.03;88.65
4012;BME280;2020;48.682;9.024;2023-05-08T13:05:48;96828.66;;;17.32;90.70
4012;BME280;2020;48.682;9.024;2023-05-08T13:08:13;96823.78;;;17.29;87.63
4012;BME280;2020;48.682;9.024;2023-05-08T13:13:14;96826.69;;;17.91;90.60
4012;BME280;2020;48.682;9.024;2023-05-08T13:15:40;96814.31;;;18.20;85.20
4012;BME280;2020;48.682;9.024;2023-05-08T13:18:05;96821.78;;;17.88;85.66
4012;BME280;2020;48.682;9.024;2023-05-08T13:20:32;96820.69;;;17.75;85.48
4012;BME280;2020;48.682;9.024;2023-05-08T13:22:58;96818.75;;;17.56;82.38
4012;BME280;2020;48.682;9.024;2023-05-08T13:25:23;96815.53;;;17.60;85.50
4012;BME280;2020;48.682;9.024;2023-05-08T13:27:48;96821.66;;;17.67;83.70
4012;BME280;2020;48.682;9.024;2023-05-08T13:30:14;96817.53;;;17.87;82.14
4012;BME280;2020;48.682;9.024;2023-05-08T13:32:39;96816.19;;;17.69;78.63
4012;BME280;2020;48.682;9.024;2023-05-08T13:35:05;96811.00;;;17.76;84.19
4012;BME280;2020;48.682;9.024;2023-05-08T13:37:31;96806.75;;;17.81;82.60
4012;BME280;2020;48.682;9.024;2023-05-08T13:39:56;96795.50;;;17.94;84.45